sensor_id;sensor_type;location;lat;lon;timestamp;pressure;altitude;pressure_sealevel;temperature;humidity
75317;BME280;63913;51.492;10.368;2023-12-07T00:00:04;98507.88;;;1.01;100.00
75317;BME280;63913;51.492;10.368;2023-12-07T00:02:29;98511.81;;;0.96;100.00
75317;BME280;63913;51.492;10.368;2023-12-07T00:04:55;98507.63;;;0.96;100.00
75317;BME280;63913;51.492;10.368;2023-12-07T00:07:20;98509.38;;;0.97;100.00
75317;BME280;63913;51.492;10.368;2023-12-07T00:09:45;98514.34;;;0.96;100.00
75317;BME280;63913;51.492;10.368;2023-12-07T00:12:11;98505.69;;;0.92;100.00
75317;BME280;63913;51.492;10.368;2023-12-07T00:14:36;98520.28;;;0.96;100.00
75317;BME280;63913;51.492;10.368;2023-12-07T00:17:02;98516.25;;;1.00;100.00
75317;BME280;63913;51.492;10.368;2023-12-07T00:19:27;98524.56;;;0.97;100.00
75317;BME280;63913;51.492;10.368;2023-12-07T00:21:52;98528.66;;;0.95;100.00
75317;BME280;63913;51.492;10.368;2023-12-07T00:24:18;98532.94;;;0.96;100.00
75317;BME280;63913;51.492;10.368;2023-12-07T00:26:43;98528.75;;;0.97;100.00
75317;BME280;63913;51.492;10.368;2023-12-07T00:29:08;98532.06;;;0.96;100.00
75317;BME280;63913;51.492;10.368;2023-12-07T00:31:34;98539.66;;;0.96;100.00
75317;BME280;63913;51.492;10.368;2023-12-07T00:33:59;98533.72;;;0.95;100.00
75317;BME280;63913;51.492;10.368;2023-12-07T00:36:25;98533.19;;;1.01;100.00
75317;BME280;63913;51.492;10.368;2023-12-07T00:38:51;98532.22;;;0.99;100.00
75317;BME280;63913;51.492;10.368;2023-12-07T00:41:16;98537.13;;;0.96;100.00
75317;BME280;63913;51.492;10.368;2023-12-07T00:43:42;98544.72;;;0.96;100.00
75317;BME280;63913;51.492;10.368;2023-12-07T00:46:07;98546.28;;;0.94;100.00
75317;BME280;63913;51.492;10.368;2023-12-07T00:48:33;98544.44;;;0.91;100.00
75317;BME280;63913;51.492;10.368;2023-12-07T00:50:58;98547.06;;;0.93;100.00
75317;BME280;63913;51.492;10.368;2023-12-07T00:53:23;98554.53;;;0.91;100.00
75317;BME280;63913;51.492;10.368;2023-12-07T00:55:49;98553.59;;;0.89;100.00
75317;BME280;63913;51.492;10.368;2023-12-07T00:58:15;98555.44;;;0.92;100.00
75317;BME280;63913;51.492;10.368;2023-12-07T01:00:40;98554.94;;;0.97;100.00
75317;BME280;63913;51.492;10.368;2023-12-07T01:03:05;98566.53;;;0.94;100.00
75317;BME280;63913;51.492;10.368;2023-12-07T01:05:31;98561.47;;;0.94;100.00
75317;BME280;63913;51.492;10.368;2023-12-07T01:07:56;98574.13;;;0.94;100.00
75317;BME280;63913;51.492;10.368;2023-12-07T01:10:21;98569.31;;;0.98;100.00
75317;BME280;63913;51.492;10.368;2023-12-07T01:12:47;98586.16;;;0.98;100.00
75317;BME280;63913;51.492;10.368;2023-12-07T01:15:12;98583.47;;;0.95;100.00
75317;BME280;63913;51.492;10.368;2023-12-07T01:17:37;98580.31;;;0.99;100.00
75317;BME280;63913;51.492;10.368;2023-12-07T01:20:05;98580.94;;;0.95;100.00
75317;BME280;63913;51.492;10.368;2023-12-07T01:22:36;98586.97;;;0.97;100.00
75317;BME280;63913;51.492;10.368;2023-12-07T01:25:02;98591.94;;;0.95;100.00
75317;BME280;63913;51.492;10.368;2023-12-07T01:27:27;98589.56;;;0.98;100.00
75317;BME280;63913;51.492;10.368;2023-12-07T01:29:53;98592.41;;;1.03;100.00
75317;BME280;63913;51.492;10.368;2023-12-07T01:32:18;98589.97;;;1.04;100.00
75317;BME280;63913;51.492;10.368;2023-12-07T01:34:43;98601.75;;;1.04;100.00
75317;BME280;63913;51.492;10.368;2023-12-07T01:37:09;98598.81;;;0.98;100.00
75317;BME280;63913;51.492;10.368;2023-12-07T01:39:34;98606.59;;;1.01;100.00
75317;BME280;63913;51.492;10.368;2023-12-07T01:41:59;98606.41;;;0.98;100.00
75317;BME280;63913;51.492;10.368;2023-12-07T01:44:25;98610.78;;;1.00;100.00
75317;BME280;63913;51.492;10.368;2023-12-07T01:46:52;98608.09;;;0.97;100.00
75317;BME280;63913;51.492;10.368;2023-12-07T01:49:17;98614.00;;;0.98;100.00
75317;BME280;63913;51.492;10.368;2023-12-07T01:51:43;98612.28;;;0.97;100.00
75317;BME280;63913;51.492;10.368;2023-12-07T01:54:08;98616.72;;;1.01;100.00
75317;BME280;63913;51.492;10.368;2023-12-07T01:56:34;98610.78;;;1.00;100.00
75317;BME280;63913;51.492;10.368;2023-12-07T01:59:00;98619.06;;;0.98;100.00
75317;BME280;63913;51.492;10.368;2023-12-07T02:01:25;98611.19;;;0.93;100.00
75317;BME280;63913;51.492;10.368;2023-12-07T02:03:50;98619.25;;;1.01;100.00
75317;BME280;63913;51.492;10.368;2023-12-07T02:06:16;98623.44;;;1.00;100.00
75317;BME280;63913;51.492;10.368;2023-12-07T02:08:43;98612.44;;;1.00;100.00
75317;BME280;63913;51.492;10.368;2023-12-07T02:11:08;98625.00;;;0.98;100.00
75317;BME280;63913;51.492;10.368;2023-12-07T02:13:36;98622.41;;;0.97;100.00
75317;BME280;63913;51.492;10.368;2023-12-07T02:16:08;98630.25;;;1.01;100.00
75317;BME280;63913;51.492;10.368;2023-12-07T02:18:40;98625.09;;;1.00;100.00
75317;BME280;63913;51.492;10.368;2023-12-07T02:21:16;98630.06;;;0.98;100.00
75317;BME280;63913;51.492;10.368;2023-12-07T02:23:44;98629.47;;;1.02;100.00
75317;BME280;63913;51.492;10.368;2023-12-07T02:26:13;98629.59;;;1.04;100.00
75317;BME280;63913;51.492;10.368;2023-12-07T02:28:38;98632.13;;;1.04;100.00
75317;BME280;63913;51.492;10.368;2023-12-07T02:31:04;98625.09;;;1.00;100.00
75317;BME280;63913;51.492;10.368;2023-12-07T02:33:30;98622.00;;;1.04;100.00
75317;BME280;63913;51.492;10.368;2023-12-07T02:35:55;98627.94;;;1.04;100.00
75317;BME280;63913;51.492;10.368;2023-12-07T02:38:22;98627.16;;;1.05;100.00
75317;BME280;63913;51.492;10.368;2023-12-07T02:40:51;98628.09;;;1.07;100.00
75317;BME280;63913;51.492;10.368;2023-12-07T02:43:18;98630.47;;;1.04;100.00
75317;BME280;63913;51.492;10.368;2023-12-07T02:45:43;98632.91;;;1.03;100.00
75317;BME280;63913;51.492;10.368;2023-12-07T02:48:09;98639.81;;;1.05;100.00
75317;BME280;63913;51.492;10.368;2023-12-07T02:50:34;98633.00;;;1.04;100.00
75317;BME280;63913;51.492;10.368;2023-12-07T02:53:00;98640.66;;;1.06;100.00
75317;BME280;63913;51.492;10.368;2023-12-07T02:55:25;98644.00;;;1.05;100.00
75317;BME280;63913;51.492;10.368;2023-12-07T02:57:50;98633.00;;;1.04;100.00
75317;BME280;63913;51.492;10.368;2023-12-07T03:00:16;98630.38;;;1.03;100.00
75317;BME280;63913;51.492;10.368;2023-12-07T03:02:42;98640.66;;;1.06;100.00
75317;BME280;63913;51.492;10.368;2023-12-07T03:05:08;98644.06;;;1.06;100.00
75317;BME280;63913;51.492;10.368;2023-12-07T03:07:34;98648.34;;;1.07;100.00
75317;BME280;63913;51.492;10.368;2023-12-07T03:09:59;98648.25;;;1.06;100.00
75317;BME280;63913;51.492;10.368;2023-12-07T03:12:25;98645.81;;;1.07;100.00
75317;BME280;63913;51.492;10.368;2023-12-07T03:14:50;98656.91;;;1.09;100.00
75317;BME280;63913;51.492;10.368;2023-12-07T03:17:16;98659.09;;;1.03;100.00
75317;BME280;63913;51.492;10.368;2023-12-07T03:19:41;98660.75;;;1.03;100.00
75317;BME280;63913;51.492;10.368;2023-12-07T03:22:07;98661.72;;;1.05;100.00
75317;BME280;63913;51.492;10.368;2023-12-07T03:24:34;98667.66;;;1.05;100.00
75317;BME280;63913;51.492;10.368;2023-12-07T03:26:59;98667.56;;;1.04;100.00
75317;BME280;63913;51.492;10.368;2023-12-07T03:29:24;98668.44;;;1.04;100.00
75317;BME280;63913;51.492;10.368;2023-12-07T03:31:50;98667.66;;;1.05;100.00
75317;BME280;63913;51.492;10.368;2023-12-07T03:34:15;98672.63;;;1.04;100.00
75317;BME280;63913;51.492;10.368;2023-12-07T03:36:44;98665.81;;;1.03;100.00
75317;BME280;63913;51.492;10.368;2023-12-07T03:39:10;98665.91;;;1.04;100.00
75317;BME280;63913;51.492;10.368;2023-12-07T03:41:35;98670.88;;;1.03;100.00
75317;BME280;63913;51.492;10.368;2023-12-07T03:44:00;98667.34;;;1.01;100.00
75317;BME280;63913;51.492;10.368;2023-12-07T03:46:26;98675.81;;;1.01;100.00
75317;BME280;63913;51.492;10.368;2023-12-07T03:48:51;98665.50;;;0.98;100.00
75317;BME280;63913;51.492;10.368;2023-12-07T03:51:16;98668.91;;;0.99;100.00
75317;BME280;63913;51.492;10.368;2023-12-07T03:53:42;98671.44;;;0.99;100.00
75317;BME280;63913;51.492;10.368;2023-12-07T03:56:08;98676.50;;;0.99;100.00
75317;BME280;63913;51.492;10.368;2023-12-07T03:58:33;98687.59;;;1.01;100.00
75317;BME280;63913;51.492;10.368;2023-12-07T04:00:59;98678.56;;;1.04;100.00
75317;BME280;63913;51.492;10.368;2023-12-07T04:03:25;98682.13;;;1.08;100.00
75317;BME280;63913;51.492;10.368;2023-12-07T04:05:50;98682.03;;;1.06;100.00
75317;BME280;63913;51.492;10.368;2023-12-07T04:08:15;98692.16;;;1.06;100.00
75317;BME280;63913;51.492;10.368;2023-12-07T04:10:41;98687.03;;;1.05;100.00
75317;BME280;63913;51.492;10.368;2023-12-07T04:13:06;98695.56;;;1.07;100.00
75317;BME280;63913;51.492;10.368;2023-12-07T04:15:31;98692.09;;;1.05;100.00
75317;BME280;63913;51.492;10.368;2023-12-07T04:17:57;98685.38;;;1.05;100.00
75317;BME280;63913;51.492;10.368;2023-12-07T04:20:22;98693.75;;;1.04;100.00
75317;BME280;63913;51.492;10.368;2023-12-07T04:22:47;98693.91;;;1.07;100.00
75317;BME280;63913;51.492;10.368;2023-12-07T04:25:13;98692.25;;;1.08;100.00
75317;BME280;63913;51.492;10.368;2023-12-07T04:27:38;98693.81;;;1.06;100.00
75317;BME280;63913;51.492;10.368;2023-12-07T04:30:04;98703.94;;;1.06;100.00
75317;BME280;63913;51.492;10.368;2023-12-07T04:32:29;98700.47;;;1.04;100.00
75317;BME280;63913;51.492;10.368;2023-12-07T04:34:55;98699.59;;;1.03;100.00
75317;BME280;63913;51.492;10.368;2023-12-07T04:37:20;98703.88;;;1.04;100.00
75317;BME280;63913;51.492;10.368;2023-12-07T04:39:46;98704.16;;;1.09;100.00
75317;BME280;63913;51.492;10.368;2023-12-07T04:42:11;98703.28;;;1.08;100.00
75317;BME280;63913;51.492;10.368;2023-12-07T04:44:36;98699.75;;;1.06;100.00
75317;BME280;63913;51.492;10.368;2023-12-07T04:47:02;98703.94;;;1.06;100.00
75317;BME280;63913;51.492;10.368;2023-12-07T04:49:27;98700.47;;;1.04;100.00
75317;BME280;63913;51.492;10.368;2023-12-07T04:51:53;98708.06;;;1.04;100.00
75317;BME280;63913;51.492;10.368;2023-12-07T04:54:18;98706.31;;;1.03;100.00
75317;BME280;63913;51.492;10.368;2023-12-07T04:56:44;98705.69;;;1.07;100.00
75317;BME280;63913;51.492;10.368;2023-12-07T04:59:10;98708.22;;;1.07;100.00
75317;BME280;63913;51.492;10.368;2023-12-07T05:01:35;98708.22;;;1.07;100.00
75317;BME280;63913;51.492;10.368;2023-12-07T05:04:01;98708.94;;;1.04;100.00
75317;BME280;63913;51.492;10.368;2023-12-07T05:06:29;98706.47;;;1.06;100.00
75317;BME280;63913;51.492;10.368;2023-12-07T05:08:54;98714.28;;;1.09;100.00
75317;BME280;63913;51.492;10.368;2023-12-07T05:11:20;98705.03;;;1.09;100.00
75317;BME280;63913;51.492;10.368;2023-12-07T05:13:45;98709.31;;;1.10;100.00
75317;BME280;63913;51.492;10.368;2023-12-07T05:16:10;98705.03;;;1.09;100.00
75317;BME280;63913;51.492;10.368;2023-12-07T05:18:35;98718.47;;;1.08;100.00
75317;BME280;63913;51.492;10.368;2023-12-07T05:21:01;98715.25;;;1.11;100.00
75317;BME280;63913;51.492;10.368;2023-12-07T05:23:27;98717.00;;;1.12;100.00
75317;BME280;63913;51.492;10.368;2023-12-07T05:25:52;98722.66;;;1.08;100.00
75317;BME280;63913;51.492;10.368;2023-12-07T05:28:18;98717.59;;;1.08;100.00
75317;BME280;63913;51.492;10.368;2023-12-07T05:30:43;98721.88;;;1.09;100.00
75317;BME280;63913;51.492;10.368;2023-12-07T05:33:09;98716.03;;;1.10;100.00
75317;BME280;63913;51.492;10.368;2023-12-07T05:35:34;98718.75;;;1.13;100.00
75317;BME280;63913;51.492;10.368;2023-12-07T05:37:59;98721.97;;;1.10;100.00
75317;BME280;63913;51.492;10.368;2023-12-07T05:40:25;98710.88;;;1.08;100.00
75317;BME280;63913;51.492;10.368;2023-12-07T05:42:51;98714.16;;;1.07;100.00
75317;BME280;63913;51.492;10.368;2023-12-07T05:45:17;98720.81;;;1.05;100.00
75317;BME280;63913;51.492;10.368;2023-12-07T05:47:42;98720.81;;;1.05;100.00
75317;BME280;63913;51.492;10.368;2023-12-07T05:50:08;98714.28;;;1.09;100.00
75317;BME280;63913;51.492;10.368;2023-12-07T05:52:33;98713.50;;;1.10;100.00
75317;BME280;63913;51.492;10.368;2023-12-07T05:54:58;98712.50;;;1.08;100.00
75317;BME280;63913;51.492;10.368;2023-12-07T05:57:24;98709.72;;;1.03;100.00
75317;BME280;63913;51.492;10.368;2023-12-07T05:59:49;98711.47;;;1.04;100.00
75317;BME280;63913;51.492;10.368;2023-12-07T06:02:15;98720.72;;;1.04;100.00
75317;BME280;63913;51.492;10.368;2023-12-07T06:04:40;98716.44;;;1.03;100.00
75317;BME280;63913;51.492;10.368;2023-12-07T06:07:06;98715.56;;;1.02;100.00
75317;BME280;63913;51.492;10.368;2023-12-07T06:09:31;98714.66;;;1.02;100.00
75317;BME280;63913;51.492;10.368;2023-12-07T06:11:56;98718.19;;;1.04;100.00
75317;BME280;63913;51.492;10.368;2023-12-07T06:14:22;98717.22;;;1.02;100.00
75317;BME280;63913;51.492;10.368;2023-12-07T06:16:50;98716.06;;;0.97;100.00
75317;BME280;63913;51.492;10.368;2023-12-07T06:19:16;98727.84;;;0.96;100.00
75317;BME280;63913;51.492;10.368;2023-12-07T06:21:41;98714.19;;;0.94;100.00
75317;BME280;63913;51.492;10.368;2023-12-07T06:24:06;98722.16;;;1.00;100.00
75317;BME280;63913;51.492;10.368;2023-12-07T06:26:32;98736.47;;;1.00;100.00
75317;BME280;63913;51.492;10.368;2023-12-07T06:28:58;98735.44;;;0.96;100.00
75317;BME280;63913;51.492;10.368;2023-12-07T06:31:23;98737.66;;;0.92;100.00
75317;BME280;63913;51.492;10.368;2023-12-07T06:33:49;98736.00;;;0.92;100.00
75317;BME280;63913;51.492;10.368;2023-12-07T06:36:19;98745.44;;;0.95;100.00
75317;BME280;63913;51.492;10.368;2023-12-07T06:38:45;98747.00;;;0.93;100.00
75317;BME280;63913;51.492;10.368;2023-12-07T06:41:11;98746.44;;;0.97;100.00
75317;BME280;63913;51.492;10.368;2023-12-07T06:43:36;98759.25;;;1.00;100.00
75317;BME280;63913;51.492;10.368;2023-12-07T06:46:01;98744.84;;;0.99;100.00
75317;BME280;63913;51.492;10.368;2023-12-07T06:48:27;98757.44;;;0.97;100.00
75317;BME280;63913;51.492;10.368;2023-12-07T06:50:52;98763.34;;;0.98;100.00
75317;BME280;63913;51.492;10.368;2023-12-07T06:53:17;98765.88;;;0.98;100.00
75317;BME280;63913;51.492;10.368;2023-12-07T06:55:44;98763.53;;;1.01;100.00
75317;BME280;63913;51.492;10.368;2023-12-07T06:58:09;98766.94;;;1.01;100.00
75317;BME280;63913;51.492;10.368;2023-12-07T07:00:35;98766.06;;;1.01;100.00
75317;BME280;63913;51.492;10.368;2023-12-07T07:03:01;98766.06;;;1.01;100.00
75317;BME280;63913;51.492;10.368;2023-12-07T07:05:27;98770.47;;;1.03;100.00
75317;BME280;63913;51.492;10.368;2023-12-07T07:07:53;98773.88;;;1.04;100.00
75317;BME280;63913;51.492;10.368;2023-12-07T07:10:20;98769.59;;;1.03;100.00
75317;BME280;63913;51.492;10.368;2023-12-07T07:12:46;98775.44;;;1.02;100.00
75317;BME280;63913;51.492;10.368;2023-12-07T07:15:12;98770.38;;;1.02;100.00
75317;BME280;63913;51.492;10.368;2023-12-07T07:17:37;98779.22;;;1.08;100.00
75317;BME280;63913;51.492;10.368;2023-12-07T07:20:03;98777.78;;;1.12;100.00
75317;BME280;63913;51.492;10.368;2023-12-07T07:22:28;98790.53;;;1.13;100.00
75317;BME280;63913;51.492;10.368;2023-12-07T07:24:54;98775.13;;;1.10;100.00
75317;BME280;63913;51.492;10.368;2023-12-07T07:27:19;98785.06;;;1.07;100.00
75317;BME280;63913;51.492;10.368;2023-12-07T07:29:44;98788.47;;;1.08;100.00
75317;BME280;63913;51.492;10.368;2023-12-07T07:32:11;98785.16;;;1.09;100.00
75317;BME280;63913;51.492;10.368;2023-12-07T07:34:37;98784.28;;;1.08;100.00
75317;BME280;63913;51.492;10.368;2023-12-07T07:37:03;98783.59;;;1.11;100.00
75317;BME280;63913;51.492;10.368;2023-12-07T07:39:28;98790.88;;;1.06;100.00
75317;BME280;63913;51.492;10.368;2023-12-07T07:41:54;98784.28;;;1.08;100.00
75317;BME280;63913;51.492;10.368;2023-12-07T07:44:19;98788.28;;;1.05;100.00
75317;BME280;63913;51.492;10.368;2023-12-07T07:46:44;98786.63;;;1.05;100.00
75317;BME280;63913;51.492;10.368;2023-12-07T07:49:11;98786.63;;;1.05;100.00
75317;BME280;63913;51.492;10.368;2023-12-07T07:51:36;98789.06;;;1.04;100.00
75317;BME280;63913;51.492;10.368;2023-12-07T07:54:03;98783.13;;;1.03;100.00
75317;BME280;63913;51.492;10.368;2023-12-07T07:56:28;98788.47;;;1.08;100.00
75317;BME280;63913;51.492;10.368;2023-12-07T07:58:53;98795.59;;;1.13;100.00
75317;BME280;63913;51.492;10.368;2023-12-07T08:01:19;98795.66;;;1.15;100.00
75317;BME280;63913;51.492;10.368;2023-12-07T08:03:45;98792.25;;;1.14;100.00
75317;BME280;63913;51.492;10.368;2023-12-07T08:06:10;98796.66;;;1.17;100.00
75317;BME280;63913;51.492;10.368;2023-12-07T08:08:35;98799.19;;;1.17;100.00
75317;BME280;63913;51.492;10.368;2023-12-07T08:11:03;98807.56;;;1.16;100.00
75317;BME280;63913;51.492;10.368;2023-12-07T08:13:31;98800.16;;;1.19;100.00
75317;BME280;63913;51.492;10.368;2023-12-07T08:15:57;98798.41;;;1.18;100.00
75317;BME280;63913;51.492;10.368;2023-12-07T08:18:22;98801.91;;;1.20;100.00
75317;BME280;63913;51.492;10.368;2023-12-07T08:20:47;98805.22;;;1.19;100.00
75317;BME280;63913;51.492;10.368;2023-12-07T08:23:13;98805.41;;;1.22;100.00
75317;BME280;63913;51.492;10.368;2023-12-07T08:25:38;98809.69;;;1.23;100.00
75317;BME280;63913;51.492;10.368;2023-12-07T08:28:05;98810.78;;;1.27;100.00
75317;BME280;63913;51.492;10.368;2023-12-07T08:30:30;98815.72;;;1.25;100.00
75317;BME280;63913;51.492;10.368;2023-12-07T08:32:56;98813.97;;;1.24;100.00
75317;BME280;63913;51.492;10.368;2023-12-07T08:35:21;98815.94;;;1.28;100.00
75317;BME280;63913;51.492;10.368;2023-12-07T08:37:46;98815.34;;;1.32;100.00
75317;BME280;63913;51.492;10.368;2023-12-07T08:40:12;98817.97;;;1.34;100.00
75317;BME280;63913;51.492;10.368;2023-12-07T08:42:40;98815.34;;;1.32;100.00
75317;BME280;63913;51.492;10.368;2023-12-07T08:45:06;98813.56;;;1.31;100.00
75317;BME280;63913;51.492;10.368;2023-12-07T08:47:31;98814.34;;;1.30;100.00
75317;BME280;63913;51.492;10.368;2023-12-07T08:49:57;98816.88;;;1.30;100.00
75317;BME280;63913;51.492;10.368;2023-12-07T08:52:22;98820.22;;;1.29;100.00
75317;BME280;63913;51.492;10.368;2023-12-07T08:54:48;98815.16;;;1.29;100.00
75317;BME280;63913;51.492;10.368;2023-12-07T08:57:13;98816.09;;;1.31;100.00
75317;BME280;63913;51.492;10.368;2023-12-07T08:59:39;98819.13;;;1.39;100.00
75317;BME280;63913;51.492;10.368;2023-12-07T09:02:05;98821.59;;;1.37;100.00
75317;BME280;63913;51.492;10.368;2023-12-07T09:04:30;98819.13;;;1.39;100.00
75317;BME280;63913;51.492;10.368;2023-12-07T09:06:55;98818.19;;;1.37;100.00
75317;BME280;63913;51.492;10.368;2023-12-07T09:09:21;98825.94;;;1.40;100.00
75317;BME280;63913;51.492;10.368;2023-12-07T09:11:47;98826.03;;;1.41;100.00
75317;BME280;63913;51.492;10.368;2023-12-07T09:14:12;98820.31;;;1.44;100.00
75317;BME280;63913;51.492;10.368;2023-12-07T09:16:45;98827.91;;;1.44;100.00
75317;BME280;63913;51.492;10.368;2023-12-07T09:19:11;98823.72;;;1.44;100.00
75317;BME280;63913;51.492;10.368;2023-12-07T09:21:37;98833.25;;;1.48;100.00
75317;BME280;63913;51.492;10.368;2023-12-07T09:24:03;98830.91;;;1.51;100.00
75317;BME280;63913;51.492;10.368;2023-12-07T09:26:28;98837.91;;;1.56;100.00
75317;BME280;63913;51.492;10.368;2023-12-07T09:28:54;98833.06;;;1.59;100.00
75317;BME280;63913;51.492;10.368;2023-12-07T09:31:19;98823.00;;;1.60;96.20
75317;BME280;63913;51.492;10.368;2023-12-07T09:33:44;98825.81;;;1.65;96.98
75317;BME280;63913;51.492;10.368;2023-12-07T09:36:10;98831.34;;;1.72;96.78
75317;BME280;63913;51.492;10.368;2023-12-07T09:38:37;98831.19;;;1.69;96.49
75317;BME280;63913;51.492;10.368;2023-12-07T09:41:03;98826.19;;;1.71;95.77
75317;BME280;63913;51.492;10.368;2023-12-07T09:43:29;98842.38;;;1.73;96.77
75317;BME280;63913;51.492;10.368;2023-12-07T09:45:55;98839.06;;;1.74;96.92
75317;BME280;63913;51.492;10.368;2023-12-07T09:48:23;98834.97;;;1.76;95.37
75317;BME280;63913;51.492;10.368;2023-12-07T09:50:49;98841.91;;;1.78;97.25
75317;BME280;63913;51.492;10.368;2023-12-07T09:53:14;98832.59;;;1.79;96.63
75317;BME280;63913;51.492;10.368;2023-12-07T09:55:39;98831.16;;;1.82;97.74
75317;BME280;63913;51.492;10.368;2023-12-07T09:58:05;98818.69;;;1.85;98.31
75317;BME280;63913;51.492;10.368;2023-12-07T10:00:31;98820.59;;;1.89;99.37
75317;BME280;63913;51.492;10.368;2023-12-07T10:02:58;98820.69;;;1.91;98.82
75317;BME280;63913;51.492;10.368;2023-12-07T10:05:24;98823.50;;;1.96;97.82
75317;BME280;63913;51.492;10.368;2023-12-07T10:07:50;98821.06;;;1.97;97.33
75317;BME280;63913;51.492;10.368;2023-12-07T10:10:17;98816.97;;;1.99;95.85
75317;BME280;63913;51.492;10.368;2023-12-07T10:15:16;98804.56;;;2.04;96.59
75317;BME280;63913;51.492;10.368;2023-12-07T10:17:53;98805.44;;;2.04;96.86
75317;BME280;63913;51.492;10.368;2023-12-07T10:20:20;98805.53;;;2.06;96.07
75317;BME280;63913;51.492;10.368;2023-12-07T10:25:28;98808.41;;;2.12;95.90
75317;BME280;63913;51.492;10.368;2023-12-07T10:27:54;98797.41;;;2.11;96.03
75317;BME280;63913;51.492;10.368;2023-12-07T10:30:21;98796.63;;;2.12;96.40
75317;BME280;63913;51.492;10.368;2023-12-07T10:32:51;98795.75;;;2.12;95.69
75317;BME280;63913;51.492;10.368;2023-12-07T10:35:18;98795.84;;;2.13;94.78
75317;BME280;63913;51.492;10.368;2023-12-07T10:37:45;98800.13;;;2.14;94.38
75317;BME280;63913;51.492;10.368;2023-12-07T10:40:10;98794.97;;;2.13;94.51
75317;BME280;63913;51.492;10.368;2023-12-07T10:42:36;98803.63;;;2.16;95.99
75317;BME280;63913;51.492;10.368;2023-12-07T10:45:05;98806.97;;;2.15;96.44
75317;BME280;63913;51.492;10.368;2023-12-07T10:47:38;98815.53;;;2.17;96.27
75317;BME280;63913;51.492;10.368;2023-12-07T10:50:07;98807.22;;;2.20;96.92
75317;BME280;63913;51.492;10.368;2023-12-07T10:52:42;98807.16;;;2.18;95.85
75317;BME280;63913;51.492;10.368;2023-12-07T10:55:16;98803.53;;;2.15;96.07
75317;BME280;63913;51.492;10.368;2023-12-07T10:57:43;98801.88;;;2.15;95.33
75317;BME280;63913;51.492;10.368;2023-12-07T11:00:10;98813.00;;;2.17;94.88
75317;BME280;63913;51.492;10.368;2023-12-07T11:02:36;98805.56;;;2.20;92.96
75317;BME280;63913;51.492;10.368;2023-12-07T11:05:03;98801.25;;;2.19;92.76
75317;BME280;63913;51.492;10.368;2023-12-07T11:07:40;98787.66;;;2.17;92.18
75317;BME280;63913;51.492;10.368;2023-12-07T11:10:13;98782.47;;;2.16;92.23
75317;BME280;63913;51.492;10.368;2023-12-07T11:12:56;98776.72;;;2.18;93.57
75317;BME280;63913;51.492;10.368;2023-12-07T11:15:25;98780.97;;;2.19;93.45
75317;BME280;63913;51.492;10.368;2023-12-07T11:17:54;98774.34;;;2.21;94.13
75317;BME280;63913;51.492;10.368;2023-12-07T11:20:22;98782.81;;;2.22;90.35
75317;BME280;63913;51.492;10.368;2023-12-07T11:22:47;98773.66;;;2.24;91.02
75317;BME280;63913;51.492;10.368;2023-12-07T11:25:15;98771.91;;;2.23;91.27
75317;BME280;63913;51.492;10.368;2023-12-07T11:27:44;98767.03;;;2.26;91.90
75317;BME280;63913;51.492;10.368;2023-12-07T11:30:14;98764.47;;;2.26;89.76
75317;BME280;63913;51.492;10.368;2023-12-07T11:32:39;98751.88;;;2.27;90.14
75317;BME280;63913;51.492;10.368;2023-12-07T11:35:05;98753.81;;;2.32;89.85
75317;BME280;63913;51.492;10.368;2023-12-07T11:40:40;98761.50;;;2.33;85.54
75317;BME280;63913;51.492;10.368;2023-12-07T11:43:05;98747.06;;;2.32;85.54
75317;BME280;63913;51.492;10.368;2023-12-07T11:45:47;98743.91;;;2.36;86.92
75317;BME280;63913;51.492;10.368;2023-12-07T11:48:16;98743.13;;;2.37;86.14
75317;BME280;63913;51.492;10.368;2023-12-07T11:51:04;98738.34;;;2.42;86.06
75317;BME280;63913;51.492;10.368;2023-12-07T11:53:32;98729.41;;;2.48;86.75
75317;BME280;63913;51.492;10.368;2023-12-07T11:55:58;98735.28;;;2.47;86.57
75317;BME280;63913;51.492;10.368;2023-12-07T11:58:28;98734.50;;;2.48;87.92
75317;BME280;63913;51.492;10.368;2023-12-07T12:00:54;98737.03;;;2.48;87.44
75317;BME280;63913;51.492;10.368;2023-12-07T12:03:22;98736.50;;;2.54;87.75
75317;BME280;63913;51.492;10.368;2023-12-07T12:05:48;98740.59;;;2.52;88.25
75317;BME280;63913;51.492;10.368;2023-12-07T12:08:14;98742.28;;;2.51;88.35
75317;BME280;63913;51.492;10.368;2023-12-07T12:10:40;98741.22;;;2.48;82.23
75317;BME280;63913;51.492;10.368;2023-12-07T12:13:06;98734.50;;;2.48;84.15
75317;BME280;63913;51.492;10.368;2023-12-07T12:15:31;98732.03;;;2.50;85.62
75317;BME280;63913;51.492;10.368;2023-12-07T12:17:57;98726.00;;;2.48;82.53
75317;BME280;63913;51.492;10.368;2023-12-07T12:20:24;98735.28;;;2.47;82.08
75317;BME280;63913;51.492;10.368;2023-12-07T12:22:50;98727.56;;;2.46;83.21
75317;BME280;63913;51.492;10.368;2023-12-07T12:25:20;98729.22;;;2.45;81.42
75317;BME280;63913;51.492;10.368;2023-12-07T12:27:47;98730.72;;;2.42;80.79
75317;BME280;63913;51.492;10.368;2023-12-07T12:30:13;98735.97;;;2.45;83.28
75317;BME280;63913;51.492;10.368;2023-12-07T12:32:45;98725.03;;;2.46;82.52
75317;BME280;63913;51.492;10.368;2023-12-07T12:35:11;98725.22;;;2.49;80.91
75317;BME280;63913;51.492;10.368;2023-12-07T12:37:44;98723.81;;;2.54;83.37
75317;BME280;63913;51.492;10.368;2023-12-07T12:40:15;98720.75;;;2.59;84.95
75317;BME280;63913;51.492;10.368;2023-12-07T12:42:45;98720.22;;;2.65;86.73
75317;BME280;63913;51.492;10.368;2023-12-07T12:45:10;98718.81;;;2.55;80.80
75317;BME280;63913;51.492;10.368;2023-12-07T12:47:37;98716.72;;;2.63;81.76
75317;BME280;63913;51.492;10.368;2023-12-07T12:50:03;98713.56;;;2.67;82.49
75317;BME280;63913;51.492;10.368;2023-12-07T12:52:33;98718.09;;;2.73;81.06
75317;BME280;63913;51.492;10.368;2023-12-07T12:54:58;98703.91;;;2.76;79.02